ELN weather

Bowers Field
Ellensburg, Washington, United States

Public forecast

Using degrees Fahrenheit for public forecast. Weather courtesy of forecast.io.

Current aviation weather report (METAR) for Bowers Field

Retrieved 2019/12/08 10:41 UTC (0 seconds ago):

KELN 081041Z AUTO 00000KT 3/4SM BR OVC002 03/01 A2982 RMK AO2 T00280011

Closest aviation forecast (TAF) to Bowers Field

Closest forecast is Pangborn Memorial Airport, 25.6 nm (47.5 km) NNE. Retrieved 2019/12/08 06:22 UTC (4 hours ago):

TAF KEAT 080520Z 0806/0906 31002KT P6SM OVC012 FM080900 32003KT 1SM BR OVC007 FM081700 30003KT P6SM OVC015 FM081900 30003KT P6SM SCT015